Time;durP1;ratioP1;P1;durP2;ratioP2;P2;SDS_P1;SDS_P2;PMS_P1;PMS_P2;Temp;Humidity;BMP_temperature;BMP_pressure;BME280_temperature;BME280_humidity;BME280_pressure;Samples;Min_cycle;Max_cycle;Signal;HPM_P1;HPM_P2
2022/03/15 00:00:13;;;;;;;27.07;11.10;;;2.60;99.90;;;;;;4899658;29;20049;-92
2022/03/15 00:02:38;;;;;;;23.87;10.57;;;2.60;99.90;;;;;;4899552;29;20127;-92
2022/03/15 00:05:07;;;;;;;27.37;11.93;;;2.60;99.90;;;;;;4922861;29;20033;-92
2022/03/15 00:07:32;;;;;;;26.03;10.93;;;2.70;99.90;;;;;;4919099;29;20084;-90
2022/03/15 00:09:59;;;;;;;22.93;10.40;;;2.80;99.90;;;;;;4907460;29;20056;-92
2022/03/15 00:12:25;;;;;;;21.47;11.33;;;2.80;99.90;;;;;;4900927;29;20047;-91
2022/03/15 00:14:52;;;;;;;22.87;10.43;;;2.80;99.90;;;;;;4883304;29;20057;-92
2022/03/15 00:17:18;;;;;;;24.63;11.50;;;2.80;99.90;;;;;;4884628;29;20045;-92
2022/03/15 00:19:43;;;;;;;24.73;11.77;;;2.80;99.90;;;;;;4882842;29;20153;-92
2022/03/15 00:22:09;;;;;;;23.47;11.83;;;2.80;99.90;;;;;;4882572;29;20136;-93
2022/03/15 00:24:35;;;;;;;25.27;12.50;;;2.90;99.90;;;;;;4882420;29;20049;-92
2022/03/15 00:27:01;;;;;;;28.03;12.20;;;3.00;99.90;;;;;;4882578;29;20493;-92
2022/03/15 00:29:27;;;;;;;30.10;12.23;;;3.00;99.90;;;;;;4882638;29;20546;-91
2022/03/15 00:31:52;;;;;;;24.97;12.20;;;3.00;99.90;;;;;;4882667;29;20045;-92
2022/03/15 00:34:18;;;;;;;24.57;12.00;;;3.00;99.90;;;;;;4899057;29;20052;-93
2022/03/15 00:36:44;;;;;;;28.17;12.43;;;3.10;99.90;;;;;;4881728;29;20045;-92
2022/03/15 00:39:09;;;;;;;22.97;12.37;;;3.00;99.90;;;;;;4899227;29;20051;-92
2022/03/15 00:41:35;;;;;;;28.70;12.27;;;3.10;99.90;;;;;;4898893;29;20045;-91
2022/03/15 00:44:00;;;;;;;33.60;14.07;;;3.10;99.90;;;;;;4881455;29;20084;-93
2022/03/15 00:46:26;;;;;;;26.17;12.13;;;3.10;99.90;;;;;;4881916;29;20056;-92
2022/03/15 00:48:52;;;;;;;26.23;12.30;;;3.00;99.90;;;;;;4899333;29;20109;-93
2022/03/15 00:51:18;;;;;;;27.67;12.10;;;4.30;99.90;;;;;;4898595;29;20430;-92
2022/03/15 00:53:44;;;;;;;28.63;11.97;;;3.00;99.90;;;;;;4882712;29;20100;-92
2022/03/15 00:56:09;;;;;;;27.53;12.00;;;2.90;99.90;;;;;;4899109;29;20048;-92
2022/03/15 00:58:35;;;;;;;25.53;11.77;;;2.90;99.90;;;;;;4897797;29;20056;-92
2022/03/15 01:01:00;;;;;;;26.03;11.57;;;2.90;99.90;;;;;;4882423;29;20516;-92
2022/03/15 01:03:26;;;;;;;26.90;11.30;;;2.80;99.90;;;;;;4881797;29;20567;-92
2022/03/15 01:05:52;;;;;;;24.63;11.20;;;2.80;99.90;;;;;;4897729;29;20103;-91
2022/03/15 01:08:18;;;;;;;27.83;11.57;;;2.70;99.90;;;;;;4898591;29;20036;-92
2022/03/15 01:10:44;;;;;;;23.80;11.17;;;2.60;99.90;;;;;;4898931;29;20161;-93
2022/03/15 01:13:11;;;;;;;27.43;11.93;;;2.60;99.90;;;;;;4897706;29;20093;-92
2022/03/15 01:15:43;;;;;;;24.47;11.90;;;2.50;99.90;;;;;;4900651;29;20051;-93
2022/03/15 01:18:11;;;;;;;27.40;11.97;;;2.50;99.90;;;;;;4907220;29;20065;-91
2022/03/15 01:20:39;;;;;;;29.80;12.50;;;2.40;99.90;;;;;;4898077;29;20101;-92
2022/03/15 01:23:05;;;;;;;22.93;11.50;;;2.30;99.90;;;;;;4881303;29;20139;-93
2022/03/15 01:25:31;;;;;;;28.33;12.77;;;2.30;99.90;;;;;;4898668;29;20091;-92
2022/03/15 01:27:56;;;;;;;26.27;12.43;;;2.30;99.90;;;;;;4880857;29;20045;-92
2022/03/15 01:30:23;;;;;;;25.53;11.53;;;2.30;99.90;;;;;;4881588;29;20116;-92
2022/03/15 01:32:48;;;;;;;26.50;12.00;;;2.20;99.90;;;;;;4881352;29;20045;-92
2022/03/15 01:35:14;;;;;;;23.77;12.20;;;2.10;99.90;;;;;;4897288;29;20052;-92
2022/03/15 01:37:40;;;;;;;26.17;12.57;;;2.10;99.90;;;;;;4881928;29;20056;-92
2022/03/15 01:40:06;;;;;;;24.57;12.83;;;2.10;99.90;;;;;;4897279;29;20393;-92
2022/03/15 01:42:32;;;;;;;28.33;14.10;;;2.10;99.90;;;;;;4898429;29;20394;-92
2022/03/15 01:45:03;;;;;;;25.67;14.17;;;2.00;99.90;;;;;;4881584;29;20059;-92
2022/03/15 01:47:28;;;;;;;25.73;14.93;;;2.00;99.90;;;;;;4897526;29;20055;-92
2022/03/15 01:49:54;;;;;;;29.07;16.07;;;2.00;99.90;;;;;;4897874;29;20049;-92
2022/03/15 01:52:19;;;;;;;30.10;16.13;;;2.00;99.90;;;;;;4880934;29;20140;-92
2022/03/15 01:54:46;;;;;;;32.07;17.60;;;1.90;99.90;;;;;;4881239;29;20404;-92
2022/03/15 01:57:12;;;;;;;31.23;17.50;;;1.90;99.90;;;;;;4898195;29;20048;-92
2022/03/15 01:59:39;;;;;;;32.27;17.87;;;1.90;99.90;;;;;;4898397;29;20064;-93
2022/03/15 02:02:05;;;;;;;30.00;17.73;;;1.90;99.90;;;;;;4880397;29;20065;-92
2022/03/15 02:04:32;;;;;;;27.57;17.30;;;1.90;99.90;;;;;;4880944;29;20132;-92
2022/03/15 02:07:06;;;;;;;31.10;16.87;;;1.80;99.90;;;;;;4898112;29;20055;-91
2022/03/15 02:09:32;;;;;;;31.83;19.17;;;1.90;99.90;;;;;;4880675;29;20060;-93
2022/03/15 02:11:58;;;;;;;32.67;18.73;;;1.80;99.90;;;;;;4897958;29;20049;-93
2022/03/15 02:14:25;;;;;;;31.57;18.80;;;1.80;99.90;;;;;;4880795;29;20489;-92
2022/03/15 02:16:51;;;;;;;34.10;18.40;;;1.80;99.90;;;;;;4881693;29;20044;-92
2022/03/15 02:19:16;;;;;;;32.07;17.40;;;1.70;99.90;;;;;;4902186;29;20061;-92
2022/03/15 02:21:42;;;;;;;34.13;18.67;;;1.70;99.90;;;;;;4888761;29;20507;-92
2022/03/15 02:24:07;;;;;;;28.53;16.90;;;1.80;99.90;;;;;;4904038;29;20048;-92
2022/03/15 02:26:33;;;;;;;31.40;17.00;;;1.80;99.90;;;;;;4901505;29;20108;-93
2022/03/15 02:28:59;;;;;;;34.03;16.37;;;1.80;99.90;;;;;;4901606;29;20493;-93
2022/03/15 02:31:25;;;;;;;32.30;16.87;;;1.70;99.90;;;;;;4883926;29;20045;-93
2022/03/15 02:33:50;;;;;;;30.83;15.33;;;1.80;99.90;;;;;;4884861;29;20112;-92
2022/03/15 02:36:16;;;;;;;30.17;16.20;;;1.70;99.90;;;;;;4900744;29;20036;-91
2022/03/15 02:38:43;;;;;;;32.77;16.17;;;1.70;99.90;;;;;;4901426;29;20049;-92
2022/03/15 02:41:09;;;;;;;28.33;15.50;;;1.70;99.90;;;;;;4901156;29;20041;-93
2022/03/15 02:43:34;;;;;;;31.83;16.17;;;1.70;99.90;;;;;;4900537;29;20546;-92
2022/03/15 02:46:00;;;;;;;27.80;15.90;;;1.70;99.90;;;;;;4884778;29;20049;-92
2022/03/15 02:48:25;;;;;;;30.70;15.37;;;1.70;99.90;;;;;;4900975;29;20051;-92
2022/03/15 02:50:51;;;;;;;29.87;15.47;;;1.70;99.90;;;;;;4900263;29;20369;-92
2022/03/15 02:53:17;;;;;;;32.53;16.67;;;1.70;99.90;;;;;;4884335;29;20135;-91
2022/03/15 02:55:43;;;;;;;30.23;15.67;;;1.70;99.90;;;;;;4884528;29;20048;-92
2022/03/15 02:58:09;;;;;;;32.50;16.83;;;1.60;99.90;;;;;;4883509;29;20127;-92
2022/03/15 03:00:35;;;;;;;32.53;15.93;;;1.70;99.90;;;;;;4901216;29;20528;-92
2022/03/15 03:03:02;;;;;;;31.97;15.83;;;1.60;99.90;;;;;;4900942;29;20107;-93
2022/03/15 03:05:27;;;;;;;30.90;15.70;;;1.60;99.90;;;;;;4899818;29;20052;-92
2022/03/15 03:07:53;;;;;;;29.60;15.97;;;1.60;99.90;;;;;;4900148;29;20049;-91
2022/03/15 03:10:20;;;;;;;32.33;15.97;;;1.70;99.90;;;;;;4900592;29;20051;-92
2022/03/15 03:12:47;;;;;;;33.83;15.60;;;1.60;99.90;;;;;;4883636;29;20100;-92
2022/03/15 03:15:14;;;;;;;29.87;15.47;;;1.60;99.90;;;;;;4900660;29;20059;-92
2022/03/15 03:17:42;;;;;;;35.27;16.60;;;1.60;99.90;;;;;;4900507;29;20055;-92
2022/03/15 03:20:14;;;;;;;37.20;16.27;;;1.60;99.90;;;;;;4899896;29;20052;-93
2022/03/15 03:22:41;;;;;;;38.00;17.67;;;1.60;99.90;;;;;;4883914;29;20052;-93
2022/03/15 03:25:07;;;;;;;31.33;16.10;;;1.60;99.90;;;;;;4883515;29;20104;-91
2022/03/15 03:27:33;;;;;;;33.07;16.50;;;1.60;99.90;;;;;;4883070;29;20048;-93
2022/03/15 03:29:59;;;;;;;35.20;15.63;;;1.60;99.90;;;;;;4883462;29;20596;-92
2022/03/15 03:32:25;;;;;;;35.20;16.23;;;1.60;99.90;;;;;;4900337;29;20088;-92
2022/03/15 03:34:52;;;;;;;31.43;15.20;;;1.60;99.90;;;;;;4886076;29;20048;-92
2022/03/15 03:37:17;;;;;;;34.53;16.33;;;1.60;99.90;;;;;;4883355;29;20056;-91
2022/03/15 03:39:43;;;;;;;33.87;16.90;;;1.60;99.90;;;;;;4882747;29;20412;-92
2022/03/15 03:42:09;;;;;;;34.93;15.87;;;1.60;99.90;;;;;;4882867;29;20131;-92
2022/03/15 03:44:35;;;;;;;36.07;15.63;;;1.60;99.90;;;;;;4900169;29;20036;-92
2022/03/15 03:47:02;;;;;;;30.23;15.77;;;1.70;99.90;;;;;;4882381;29;20055;-91
2022/03/15 03:49:29;;;;;;;35.30;16.07;;;1.70;99.90;;;;;;4900003;29;20104;-92
2022/03/15 03:51:55;;;;;;;34.63;16.57;;;1.70;99.90;;;;;;4883030;29;20493;-92
2022/03/15 03:54:20;;;;;;;32.53;16.67;;;1.80;99.90;;;;;;4899185;29;20124;-91
2022/03/15 03:56:46;;;;;;;34.63;16.57;;;1.90;99.90;;;;;;4899827;29;20396;-92
2022/03/15 03:59:12;;;;;;;36.40;17.40;;;1.90;99.90;;;;;;4899088;29;20109;-93
2022/03/15 04:01:39;;;;;;;36.10;16.50;;;1.90;99.90;;;;;;4882715;29;20044;-93
2022/03/15 04:04:06;;;;;;;34.40;15.23;;;2.00;99.90;;;;;;4899506;29;20473;-92
2022/03/15 04:06:32;;;;;;;33.50;16.27;;;2.00;99.90;;;;;;4899880;29;20048;-92
2022/03/15 04:08:59;;;;;;;31.57;16.53;;;2.00;99.90;;;;;;4882638;29;20048;-92
2022/03/15 04:11:26;;;;;;;40.07;16.77;;;2.00;99.90;;;;;;4882754;29;20489;-92
2022/03/15 04:13:51;;;;;;;36.37;16.77;;;2.10;99.90;;;;;;4899376;29;20054;-92
2022/03/15 04:16:17;;;;;;;35.57;17.47;;;2.10;99.90;;;;;;4881759;29;20044;-92
2022/03/15 04:18:43;;;;;;;37.13;17.27;;;2.10;99.90;;;;;;4899307;29;20103;-92
2022/03/15 04:21:09;;;;;;;33.17;16.73;;;2.20;99.90;;;;;;4882124;29;20071;-92
2022/03/15 04:23:35;;;;;;;33.80;16.93;;;2.20;99.90;;;;;;4898947;29;20059;-93
2022/03/15 04:26:00;;;;;;;35.70;17.77;;;2.20;99.90;;;;;;4882271;29;20053;-92
2022/03/15 04:28:26;;;;;;;33.17;18.47;;;2.20;99.90;;;;;;4898913;29;20053;-91
2022/03/15 04:30:52;;;;;;;37.80;18.13;;;2.30;99.90;;;;;;4881877;29;20052;-92
2022/03/15 04:33:18;;;;;;;37.73;16.67;;;2.30;99.90;;;;;;4882371;29;20081;-92
2022/03/15 04:35:44;;;;;;;33.77;16.97;;;2.40;99.90;;;;;;4882398;29;20508;-92
2022/03/15 04:38:09;;;;;;;38.67;17.03;;;2.30;99.90;;;;;;4881673;29;20049;-92
2022/03/15 04:40:35;;;;;;;43.47;18.57;;;2.40;99.90;;;;;;4882144;29;20499;-92
2022/03/15 04:43:01;;;;;;;34.40;16.83;;;2.40;99.90;;;;;;4881533;29;20072;-92
2022/03/15 04:45:27;;;;;;;34.33;18.60;;;2.50;99.90;;;;;;4882294;29;20519;-92
2022/03/15 04:47:53;;;;;;;38.30;17.43;;;2.50;99.90;;;;;;4899117;29;20055;-92
2022/03/15 04:50:19;;;;;;;38.47;19.03;;;2.50;99.90;;;;;;4881304;29;20080;-93
2022/03/15 04:52:44;;;;;;;39.20;18.80;;;2.50;99.90;;;;;;4882212;29;20397;-92
2022/03/15 04:55:10;;;;;;;36.93;18.27;;;2.60;99.90;;;;;;4898471;29;20052;-92
2022/03/15 04:57:36;;;;;;;51.37;22.50;;;2.60;99.90;;;;;;4881207;29;20437;-93
2022/03/15 05:00:08;;;;;;;44.70;20.53;;;2.60;99.90;;;;;;4898324;29;20091;-91
2022/03/15 05:02:35;;;;;;;44.00;20.93;;;2.70;99.90;;;;;;4898708;29;20080;-92
2022/03/15 05:05:02;;;;;;;49.90;23.43;;;2.70;99.90;;;;;;4880931;29;20135;-93
2022/03/15 05:07:27;;;;;;;46.53;21.80;;;2.70;99.90;;;;;;4898375;29;20056;-93
2022/03/15 05:12:37;;;;;;;47.35;22.23;;;2.90;99.90;;;;;;4898276;29;20064;-92
2022/03/15 05:15:04;;;;;;;52.70;23.87;;;2.90;99.90;;;;;;4899024;29;20081;-92
2022/03/15 05:17:30;;;;;;;47.30;23.80;;;2.90;99.90;;;;;;4898469;29;20045;-92
2022/03/15 05:19:57;;;;;;;56.33;25.13;;;3.00;99.90;;;;;;4897932;29;20056;-93
2022/03/15 05:22:23;;;;;;;60.33;25.73;;;3.00;99.90;;;;;;4897943;29;20049;-92
2022/03/15 05:24:48;;;;;;;67.77;28.53;;;3.10;99.90;;;;;;4883106;29;20056;-92
2022/03/15 05:27:16;;;;;;;62.70;27.23;;;3.10;99.90;;;;;;4897678;29;20056;-92
2022/03/15 05:29:42;;;;;;;67.83;27.50;;;3.30;99.90;;;;;;4881710;29;20181;-92
2022/03/15 05:32:07;;;;;;;71.07;28.07;;;3.30;99.90;;;;;;4880917;29;20143;-92
2022/03/15 05:34:33;;;;;;;70.30;29.03;;;3.40;99.90;;;;;;4898076;29;20056;-92
2022/03/15 05:36:58;;;;;;;76.90;31.23;;;3.50;99.90;;;;;;4881539;29;20041;-92
2022/03/15 05:39:24;;;;;;;74.50;30.03;;;3.50;99.90;;;;;;4880235;29;20088;-92
2022/03/15 05:41:50;;;;;;;71.73;30.97;;;3.60;99.90;;;;;;4880792;29;20044;-93
2022/03/15 05:44:15;;;;;;;65.60;29.13;;;3.60;99.90;;;;;;4897920;29;20127;-92
2022/03/15 05:46:41;;;;;;;69.90;29.07;;;3.70;99.90;;;;;;4880891;29;20051;-92
2022/03/15 05:49:06;;;;;;;76.63;29.90;;;3.80;99.90;;;;;;4897765;29;20041;-92
2022/03/15 05:51:32;;;;;;;66.10;29.53;;;3.80;99.90;;;;;;4897174;29;20523;-92
2022/03/15 05:53:58;;;;;;;72.80;30.40;;;3.80;99.90;;;;;;4897355;29;20056;-92
2022/03/15 05:56:23;;;;;;;64.70;29.10;;;3.80;99.90;;;;;;4897761;29;20090;-92
2022/03/15 05:58:49;;;;;;;67.20;29.13;;;3.90;99.90;;;;;;4880967;29;20087;-93
2022/03/15 06:01:16;;;;;;;68.40;28.83;;;3.90;99.90;;;;;;4897151;29;20125;-92
2022/03/15 06:03:42;;;;;;;75.27;30.50;;;4.00;99.90;;;;;;4898004;29;20096;-93
2022/03/15 06:06:08;;;;;;;57.77;28.87;;;4.00;99.90;;;;;;4880733;29;20445;-92
2022/03/15 06:08:33;;;;;;;68.47;28.77;;;4.00;99.90;;;;;;4897578;29;20561;-93
2022/03/15 06:11:02;;;;;;;68.50;29.03;;;4.10;99.90;;;;;;4897738;29;20072;-93
2022/03/15 06:13:28;;;;;;;57.03;27.27;;;4.10;99.90;;;;;;4898003;29;20068;-93
2022/03/15 06:15:53;;;;;;;66.43;28.90;;;4.00;99.90;;;;;;4880449;29;20056;-92
2022/03/15 06:18:19;;;;;;;65.27;28.10;;;4.10;99.90;;;;;;4897372;29;20060;-92
2022/03/15 06:20:45;;;;;;;62.93;27.93;;;4.10;99.90;;;;;;4897527;29;20060;-93
2022/03/15 06:23:11;;;;;;;57.43;27.27;;;4.20;99.90;;;;;;4880359;29;20143;-93
2022/03/15 06:25:36;;;;;;;72.30;30.20;;;4.10;99.90;;;;;;4897342;29;20044;-92
2022/03/15 06:28:02;;;;;;;58.77;27.47;;;4.30;99.90;;;;;;4881000;29;20056;-92
2022/03/15 06:30:28;;;;;;;69.33;29.33;;;4.20;99.90;;;;;;4880256;29;20040;-93
2022/03/15 06:32:53;;;;;;;62.60;29.17;;;4.20;99.90;;;;;;4881060;29;20139;-92
2022/03/15 06:35:19;;;;;;;61.70;28.50;;;4.30;99.90;;;;;;4880902;29;20096;-92
2022/03/15 06:37:46;;;;;;;54.97;27.63;;;4.30;99.90;;;;;;4897262;29;20495;-92
2022/03/15 06:40:16;;;;;;;62.63;29.30;;;4.40;99.90;;;;;;4897011;29;20041;-93
2022/03/15 06:42:42;;;;;;;56.43;27.37;;;4.40;99.90;;;;;;4880051;29;20040;-92
2022/03/15 06:45:09;;;;;;;62.60;29.83;;;4.40;99.90;;;;;;4896998;29;20119;-92
2022/03/15 06:47:35;;;;;;;55.87;27.70;;;4.50;99.90;;;;;;4897607;29;20507;-93
2022/03/15 06:50:04;;;;;;;54.03;28.07;;;4.40;99.90;;;;;;4896813;29;20053;-90
2022/03/15 06:52:30;;;;;;;51.03;27.30;;;4.50;99.90;;;;;;4880120;29;20057;-88
2022/03/15 06:54:55;;;;;;;51.00;26.30;;;4.50;99.90;;;;;;4880291;29;20131;-87
2022/03/15 06:57:21;;;;;;;55.93;25.87;;;4.60;99.90;;;;;;4879083;29;20162;-90
2022/03/15 06:59:47;;;;;;;55.47;27.37;;;4.60;99.90;;;;;;4896690;29;20048;-88
2022/03/15 07:02:13;;;;;;;54.80;25.93;;;4.70;99.90;;;;;;4880007;29;20378;-92
2022/03/15 07:04:40;;;;;;;49.37;26.43;;;4.70;99.90;;;;;;4900242;29;20092;-90
2022/03/15 07:07:15;;;;;;;51.57;26.83;;;5.60;99.90;;;;;;4883482;29;20135;-91
2022/03/15 07:09:42;;;;;;;55.30;26.53;;;4.60;99.90;;;;;;4884214;29;20045;-93
2022/03/15 07:12:11;;;;;;;54.83;28.43;;;5.70;99.90;;;;;;4900342;29;20493;-95
2022/03/15 07:14:43;;;;;;;52.27;26.83;;;5.90;99.90;;;;;;4900850;29;20048;-93
2022/03/15 07:17:09;;;;;;;56.73;26.27;;;4.90;99.90;;;;;;4883903;29;20049;-87
2022/03/15 07:19:34;;;;;;;50.80;27.43;;;4.90;99.90;;;;;;4882083;29;20116;-90
2022/03/15 07:22:00;;;;;;;51.40;26.90;;;4.90;99.90;;;;;;4883417;29;20096;-92
2022/03/15 07:24:26;;;;;;;50.37;26.27;;;5.20;99.90;;;;;;4883244;29;20381;-94
2022/03/15 07:26:51;;;;;;;50.57;27.43;;;5.90;99.90;;;;;;4883143;29;20049;-93
2022/03/15 07:29:17;;;;;;;50.67;27.23;;;5.20;99.90;;;;;;4900354;29;20045;-95
2022/03/15 07:31:44;;;;;;;48.67;26.00;;;5.00;99.90;;;;;;4901396;29;20059;-92
2022/03/15 07:34:09;;;;;;;50.53;28.60;;;5.00;99.90;;;;;;4899894;29;20128;-93
2022/03/15 07:36:38;;;;;;;52.93;28.30;;;5.30;99.90;;;;;;4883254;29;20127;-92
2022/03/15 07:39:04;;;;;;;48.47;27.63;;;6.20;99.90;;;;;;4882039;29;20147;-92
2022/03/15 07:41:32;;;;;;;47.43;25.53;;;5.40;99.90;;;;;;4883030;29;20136;-92
2022/03/15 07:43:58;;;;;;;47.80;26.67;;;5.30;99.90;;;;;;4899867;29;20080;-92
2022/03/15 07:46:27;;;;;;;56.30;28.87;;;5.40;99.90;;;;;;4899024;29;20477;-91
2022/03/15 07:48:53;;;;;;;48.07;27.47;;;6.10;99.90;;;;;;4883312;29;20044;-92
2022/03/15 07:51:18;;;;;;;51.10;27.40;;;5.30;99.90;;;;;;4899774;29;20449;-93
2022/03/15 07:53:44;;;;;;;50.23;28.47;;;5.50;99.90;;;;;;4882754;29;20123;-92
2022/03/15 07:56:22;;;;;;;51.47;26.93;;;5.50;99.90;;;;;;4899596;29;20059;-93
2022/03/15 07:58:47;;;;;;;47.03;26.07;;;5.60;99.90;;;;;;4883429;29;20051;-92
2022/03/15 08:01:16;;;;;;;45.13;26.80;;;5.70;99.90;;;;;;4882486;29;20056;-92
2022/03/15 08:03:45;;;;;;;46.80;26.97;;;5.80;99.90;;;;;;4899838;29;20048;-93
2022/03/15 08:06:16;;;;;;;47.17;26.77;;;5.70;99.90;;;;;;4883091;29;20374;-93
2022/03/15 08:08:48;;;;;;;46.90;27.20;;;6.10;99.90;;;;;;4883075;29;20142;-92
2022/03/15 08:11:17;;;;;;;41.67;25.43;;;6.00;99.90;;;;;;4898862;29;20044;-90
2022/03/15 08:13:43;;;;;;;46.20;26.77;;;6.00;99.90;;;;;;4882751;29;20104;-90
2022/03/15 08:16:12;;;;;;;45.37;26.90;;;5.80;99.90;;;;;;4897916;29;20489;-90
2022/03/15 08:18:38;;;;;;;43.00;25.63;;;6.50;99.90;;;;;;4898786;29;20067;-91
2022/03/15 08:21:05;;;;;;;42.03;25.33;;;6.00;99.90;;;;;;4898356;29;20060;-91
2022/03/15 08:23:30;;;;;;;40.53;25.23;;;7.20;99.90;;;;;;4882911;29;20139;-90
2022/03/15 08:25:56;;;;;;;40.43;24.90;;;6.10;99.90;;;;;;4899362;29;20080;-91
2022/03/15 08:28:26;;;;;;;39.60;24.73;;;6.30;99.90;;;;;;4897900;29;20820;-90
2022/03/15 08:31:01;;;;;;;40.50;24.55;;;6.20;99.90;;;;;;4882281;29;20044;-91
2022/03/15 08:33:27;;;;;;;43.03;25.70;;;6.30;99.90;;;;;;4882413;29;20048;-93
2022/03/15 08:35:53;;;;;;;38.17;24.30;;;6.10;99.90;;;;;;4882052;29;20409;-93
2022/03/15 08:38:19;;;;;;;44.20;24.73;;;6.30;99.90;;;;;;4899355;29;20040;-93
2022/03/15 08:40:49;;;;;;;43.70;25.40;;;5.60;99.90;;;;;;4898934;29;20049;-94
2022/03/15 08:43:15;;;;;;;39.37;23.90;;;6.10;99.90;;;;;;4897868;29;20041;-90
2022/03/15 08:45:41;;;;;;;39.53;24.40;;;6.40;99.90;;;;;;4899195;29;20052;-92
2022/03/15 08:48:07;;;;;;;40.47;24.23;;;6.40;99.90;;;;;;4899133;29;20051;-92
2022/03/15 08:50:33;;;;;;;42.23;25.13;;;6.40;99.90;;;;;;4883377;29;20515;-94
2022/03/15 08:52:59;;;;;;;44.90;25.73;;;6.40;99.90;;;;;;4899125;29;20040;-94
2022/03/15 08:55:30;;;;;;;40.37;24.67;;;6.50;99.90;;;;;;4898966;29;20047;-94
2022/03/15 08:57:56;;;;;;;40.28;24.48;;;6.30;99.90;;;;;;4898765;29;20060;-90
2022/03/15 09:00:22;;;;;;;44.67;26.10;;;6.40;99.90;;;;;;4881507;29;20592;-92
2022/03/15 09:02:51;;;;;;;42.23;25.93;;;6.60;99.90;;;;;;4881601;29;20086;-91
2022/03/15 09:05:19;;;;;;;42.83;25.10;;;6.30;99.90;;;;;;4880734;29;20166;-92
2022/03/15 09:07:51;;;;;;;42.40;24.20;;;6.90;99.90;;;;;;4898519;29;20104;-90
2022/03/15 09:10:18;;;;;;;44.90;25.70;;;7.60;99.90;;;;;;4880652;29;20084;-90
2022/03/15 09:12:44;;;;;;;38.60;24.63;;;6.70;99.90;;;;;;4881427;29;20135;-91
2022/03/15 09:15:10;;;;;;;39.70;24.53;;;7.70;99.90;;;;;;4894252;29;20556;-90
2022/03/15 09:17:35;;;;;;;37.93;25.10;;;6.80;99.90;;;;;;4862059;29;20048;-93
2022/03/15 09:20:01;;;;;;;43.17;24.83;;;6.90;99.90;;;;;;4879815;29;20048;-94
2022/03/15 09:22:26;;;;;;;37.38;24.30;;;6.90;99.90;;;;;;4879747;29;20410;-93
2022/03/15 09:24:52;;;;;;;40.72;24.88;;;6.90;99.90;;;;;;4879267;29;20498;-92
2022/03/15 09:27:18;;;;;;;37.95;24.92;;;7.30;99.90;;;;;;4863035;29;20052;-94
2022/03/15 09:29:43;;;;;;;40.40;25.52;;;6.90;99.90;;;;;;4880601;29;20049;-93
2022/03/15 09:32:10;;;;;;;38.38;24.40;;;7.00;99.90;;;;;;4880073;29;20509;-93
2022/03/15 09:34:37;;;;;;;41.63;26.48;;;7.20;99.90;;;;;;4863472;29;20056;-95
2022/03/15 09:37:05;;;;;;;41.38;25.55;;;7.20;99.90;;;;;;4862754;29;20060;-92
2022/03/15 09:39:30;;;;;;;40.17;25.17;;;7.20;99.90;;;;;;4863097;29;20055;-95
2022/03/15 09:41:59;;;;;;;37.40;25.50;;;7.20;99.90;;;;;;4862727;29;20044;-93
2022/03/15 09:44:35;;;;;;;38.88;25.52;;;7.30;99.90;;;;;;4862716;29;20108;-93
2022/03/15 09:47:05;;;;;;;36.75;24.38;;;7.10;99.90;;;;;;4862796;29;20049;-93
2022/03/15 09:49:32;;;;;;;38.33;24.70;;;7.60;99.90;;;;;;4879424;29;20053;-94
2022/03/15 09:51:59;;;;;;;38.15;24.52;;;7.30;99.90;;;;;;4863010;29;20072;-93
2022/03/15 09:54:26;;;;;;;37.38;25.15;;;8.30;99.90;;;;;;4878878;29;20053;-94
2022/03/15 09:56:53;;;;;;;36.28;24.63;;;7.70;99.90;;;;;;4862560;29;20470;-94
2022/03/15 09:59:21;;;;;;;34.85;24.45;;;7.70;99.90;;;;;;4862449;29;20406;-93
2022/03/15 10:01:53;;;;;;;37.40;24.50;;;8.20;99.90;;;;;;4862592;29;20049;-94
2022/03/15 10:04:23;;;;;;;36.25;23.90;;;7.70;99.90;;;;;;4862914;29;20049;-94
2022/03/15 10:06:52;;;;;;;38.40;24.15;;;7.90;99.90;;;;;;4863191;29;20379;-95
2022/03/15 10:09:19;;;;;;;35.13;23.45;;;8.70;99.90;;;;;;4879574;29;20107;-95
2022/03/15 10:11:48;;;;;;;35.30;24.20;;;8.80;99.90;;;;;;4879347;29;20056;-94
2022/03/15 10:14:23;;;;;;;34.42;23.02;;;8.50;99.90;;;;;;4878899;29;20053;-95
2022/03/15 10:16:51;;;;;;;36.13;23.60;;;8.00;99.90;;;;;;4881459;29;20049;-89
2022/03/15 10:19:17;;;;;;;33.75;22.58;;;8.70;99.90;;;;;;4882168;29;20068;-89
2022/03/15 10:21:55;;;;;;;33.58;23.42;;;8.30;99.90;;;;;;4886661;29;20037;-91
2022/03/15 10:24:24;;;;;;;35.50;23.58;;;8.30;99.90;;;;;;4897333;29;20526;-91
2022/03/15 10:26:54;;;;;;;34.03;23.48;;;8.70;99.90;;;;;;4883616;29;20100;-91
2022/03/15 10:29:22;;;;;;;35.80;24.70;;;8.70;99.90;;;;;;4896891;29;20132;-89
2022/03/15 10:31:48;;;;;;;34.22;23.00;;;8.70;99.90;;;;;;4897745;29;20045;-89
2022/03/15 10:34:16;;;;;;;33.63;23.58;;;8.90;99.90;;;;;;4880199;29;20108;-88
2022/03/15 10:36:47;;;;;;;39.15;24.52;;;8.90;99.90;;;;;;4879534;29;20049;-88
2022/03/15 10:39:14;;;;;;;36.17;23.48;;;8.90;99.90;;;;;;4899854;29;20438;-90
2022/03/15 10:41:55;;;;;;;32.08;22.23;;;9.00;99.90;;;;;;4883407;29;20040;-89
2022/03/15 10:44:26;;;;;;;31.90;22.13;;;9.00;99.90;;;;;;4883494;29;20056;-90
2022/03/15 10:47:17;;;;;;;31.95;22.33;;;9.10;99.90;;;;;;4901116;29;20045;-92
2022/03/15 10:49:59;;;;;;;33.58;23.13;;;9.10;99.90;;;;;;4900425;29;20048;-91
2022/03/15 10:52:45;;;;;;;32.80;22.58;;;9.90;99.90;;;;;;4891478;29;20044;-90
2022/03/15 10:55:12;;;;;;;32.30;22.52;;;10.40;99.90;;;;;;4873368;29;20040;-91
2022/03/15 10:57:53;;;;;;;34.15;21.88;;;8.70;99.90;;;;;;4873635;29;20553;-91
2022/03/15 11:00:39;;;;;;;31.60;21.17;;;10.60;99.90;;;;;;4872945;29;20044;-90
2022/03/15 11:03:29;;;;;;;31.33;20.92;;;9.80;99.90;;;;;;4873488;29;20051;-91
2022/03/15 11:06:47;;;;;;;32.13;20.85;;;9.60;99.90;;;;;;4889306;29;20056;-90
2022/03/15 11:09:24;;;;;;;32.55;21.02;;;10.50;99.90;;;;;;4887413;29;20049;-89
2022/03/15 11:12:07;;;;;;;29.58;19.70;;;9.50;99.90;;;;;;4872168;29;20109;-90
2022/03/15 11:14:40;;;;;;;29.63;20.20;;;9.70;99.90;;;;;;4888715;29;20098;-90
2022/03/15 11:17:25;;;;;;;31.42;20.48;;;9.80;99.90;;;;;;4885782;29;20494;-89
2022/03/15 11:20:07;;;;;;;28.10;20.00;;;9.90;99.90;;;;;;4905752;29;20420;-90
2022/03/15 11:25:21;;;;;;;28.42;20.13;;;8.80;99.90;;;;;;4890570;29;20055;-90
2022/03/15 11:27:54;;;;;;;31.60;19.60;;;10.20;99.90;;;;;;4910619;29;20055;-90
2022/03/15 11:30:32;;;;;;;26.15;18.20;;;11.30;99.90;;;;;;4903077;29;20505;-91
2022/03/15 11:33:01;;;;;;;29.27;18.83;;;10.60;99.90;;;;;;4863774;29;20668;-89
2022/03/15 11:35:35;;;;;;;31.15;18.70;;;10.40;99.90;;;;;;4884076;29;20076;-93
2022/03/15 11:38:09;;;;;;;25.13;17.58;;;11.00;99.90;;;;;;4864358;29;20132;-92
2022/03/15 11:40:45;;;;;;;26.92;17.00;;;10.60;99.90;;;;;;4881456;29;20052;-91
2022/03/15 11:43:14;;;;;;;26.70;16.67;;;12.00;99.90;;;;;;4864028;29;20053;-91
2022/03/15 11:46:00;;;;;;;26.33;17.67;;;11.30;99.90;;;;;;4863775;29;20044;-93
2022/03/15 11:48:53;;;;;;;27.55;18.30;;;11.20;99.90;;;;;;4880916;29;20056;-92
2022/03/15 11:52:08;;;;;;;29.60;18.05;;;11.10;99.90;;;;;;4880447;29;20049;-91
2022/03/15 11:55:08;;;;;;;;;;;11.10;99.90;;;;;;4791060;29;20051;-91
2022/03/15 11:57:45;;;;;;;28.15;17.10;;;10.70;99.90;;;;;;4801654;29;19970;-90
2022/03/15 12:00:11;;;;;;;26.60;17.55;;;11.10;99.90;;;;;;4804422;29;20134;-90
2022/03/15 12:02:48;;;;;;;28.60;17.83;;;11.10;99.90;;;;;;4827222;29;20065;-89
2022/03/15 12:05:20;;;;;;;25.80;17.25;;;11.20;99.90;;;;;;4880684;29;20135;-88
2022/03/15 12:08:11;;;;;;;25.05;16.75;;;11.20;99.90;;;;;;4880221;29;20140;-87
2022/03/15 12:10:37;;;;;;;25.48;17.13;;;11.20;99.90;;;;;;4881080;29;20063;-92
2022/03/15 12:13:05;;;;;;;25.45;16.83;;;11.30;99.90;;;;;;4863919;29;20057;-92
2022/03/15 12:15:39;;;;;;;24.42;16.30;;;11.30;99.90;;;;;;4890795;29;20131;-92
2022/03/15 12:18:18;;;;;;;28.30;16.92;;;11.30;99.90;;;;;;4900968;29;20060;-94
2022/03/15 12:20:46;;;;;;;24.88;15.65;;;11.50;99.90;;;;;;4917918;29;20411;-93
2022/03/15 12:23:22;;;;;;;23.58;15.35;;;11.80;99.90;;;;;;4918312;29;20048;-93
2022/03/15 12:25:56;;;;;;;24.73;16.08;;;11.50;99.90;;;;;;4901071;29;20139;-93
2022/03/15 12:28:30;;;;;;;23.77;15.48;;;11.60;99.90;;;;;;4917877;29;20067;-92
2022/03/15 12:31:09;;;;;;;24.88;16.00;;;11.60;99.90;;;;;;4901168;29;20072;-93
2022/03/15 12:33:36;;;;;;;24.20;14.98;;;12.40;99.90;;;;;;4901719;29;20131;-93
2022/03/15 12:36:07;;;;;;;21.73;14.35;;;12.00;99.90;;;;;;4900623;29;20045;-90
2022/03/15 12:38:40;;;;;;;23.13;14.82;;;11.70;99.90;;;;;;4900909;29;20496;-90
2022/03/15 12:41:09;;;;;;;23.88;15.30;;;11.80;99.90;;;;;;4905148;29;20102;-96
2022/03/15 12:43:35;;;;;;;23.00;15.50;;;12.70;99.90;;;;;;4903266;29;20088;-91
2022/03/15 12:46:06;;;;;;;23.70;14.65;;;11.70;99.90;;;;;;4904296;29;20079;-96